createdAt,value
2023-12-24T00:01:00.944Z,2
2023-12-24T00:01:59.634Z,2
2023-12-24T00:03:01.327Z,2
2023-12-24T00:04:00.356Z,2
2023-12-24T00:04:59.015Z,2
2023-12-24T00:06:00.149Z,2
2023-12-24T00:06:59.016Z,2
2023-12-24T00:07:59.924Z,2
2023-12-24T00:09:00.981Z,2
2023-12-24T00:09:59.655Z,2
2023-12-24T00:11:00.994Z,2
2023-12-24T00:11:59.635Z,2
2023-12-24T00:13:00.271Z,2
2023-12-24T00:13:58.987Z,2
2023-12-24T00:14:59.728Z,2
2023-12-24T00:16:01.204Z,2
2023-12-24T00:16:59.979Z,2
2023-12-24T00:17:58.844Z,2
2023-12-24T00:19:01.186Z,2
2023-12-24T00:20:00.207Z,2
2023-12-24T00:20:59.220Z,2
2023-12-24T00:22:00.115Z,2
2023-12-24T00:22:58.776Z,2
2023-12-24T00:24:00.974Z,2
2023-12-24T00:24:59.644Z,2
2023-12-24T00:26:01.058Z,1.9
2023-12-24T00:26:59.773Z,2
2023-12-24T00:28:00.997Z,2
2023-12-24T00:28:59.716Z,2
2023-12-24T00:30:01.010Z,2
2023-12-24T00:30:59.841Z,1.9
2023-12-24T00:32:01.057Z,2
2023-12-24T00:32:59.843Z,2
2023-12-24T00:34:01.106Z,2
2023-12-24T00:34:59.843Z,2
2023-12-24T00:36:01.069Z,2
2023-12-24T00:36:59.828Z,2
2023-12-24T00:38:00.990Z,2
2023-12-24T00:38:59.729Z,2
2023-12-24T00:40:01.017Z,2
2023-12-24T00:40:59.779Z,2
2023-12-24T00:42:01.025Z,2
2023-12-24T00:42:59.675Z,2
2023-12-24T00:44:01.181Z,2
2023-12-24T00:44:59.893Z,2
2023-12-24T00:46:01.007Z,2
2023-12-24T00:46:59.738Z,2
2023-12-24T00:48:01.199Z,2
2023-12-24T00:49:00.079Z,2
2023-12-24T00:49:58.832Z,2
2023-12-24T00:51:02.556Z,2
2023-12-24T00:52:01.042Z,2
2023-12-24T00:52:59.731Z,2
2023-12-24T00:54:00.963Z,2
2023-12-24T00:54:59.731Z,2
2023-12-24T00:56:06.429Z,2
2023-12-24T00:57:01.083Z,2
2023-12-24T00:57:59.801Z,2
2023-12-24T00:59:01.046Z,2
2023-12-24T00:59:59.872Z,2
2023-12-24T01:01:09.725Z,2
2023-12-24T01:02:00.356Z,2
2023-12-24T01:02:59.081Z,2
2023-12-24T01:03:59.862Z,2
2023-12-24T01:05:01.175Z,2
2023-12-24T01:06:12.452Z,2
2023-12-24T01:06:59.916Z,2
2023-12-24T01:08:01.087Z,2
2023-12-24T01:08:59.833Z,2
2023-12-24T01:10:00.960Z,2
2023-12-24T01:11:15.120Z,2
2023-12-24T01:11:59.627Z,2
2023-12-24T01:13:00.985Z,2
2023-12-24T01:13:59.708Z,2
2023-12-24T01:15:00.993Z,2
2023-12-24T01:15:59.658Z,2
2023-12-24T01:17:00.966Z,2
2023-12-24T01:17:59.831Z,2
2023-12-24T01:18:58.738Z,2
2023-12-24T01:20:01.229Z,2
2023-12-24T01:21:00.006Z,2
2023-12-24T01:21:58.688Z,1.9
2023-12-24T01:23:01.092Z,1.9
2023-12-24T01:23:59.850Z,1.8
2023-12-24T01:25:02.570Z,1.8
2023-12-24T01:26:00.068Z,1.8
2023-12-24T01:26:58.741Z,1.8
2023-12-24T01:28:00.974Z,1.8
2023-12-24T01:28:59.778Z,1.8
2023-12-24T01:30:01.415Z,1.7
2023-12-24T01:31:00.298Z,1.7
2023-12-24T01:31:59.118Z,1.7
2023-12-24T01:33:00.383Z,1.7
2023-12-24T01:33:59.558Z,1.7
2023-12-24T01:35:00.417Z,1.7
2023-12-24T01:35:59.327Z,1.7
2023-12-24T01:37:00.153Z,1.6
2023-12-24T01:37:58.916Z,1.7
2023-12-24T01:38:59.604Z,1.7
2023-12-24T01:40:00.942Z,1.7
2023-12-24T01:40:59.643Z,1.7
2023-12-24T01:41:59.146Z,1.6
2023-12-24T01:42:59.897Z,1.7
2023-12-24T01:43:58.665Z,1.7
2023-12-24T01:45:00.975Z,1.7
2023-12-24T01:45:59.762Z,1.7
2023-12-24T01:47:01.397Z,1.7
2023-12-24T01:48:00.238Z,1.7
2023-12-24T01:49:00.545Z,1.7
2023-12-24T01:50:01.027Z,1.7
2023-12-24T01:50:59.806Z,1.6
2023-12-24T01:52:01.032Z,1.6
2023-12-24T01:52:59.714Z,1.6
2023-12-24T01:54:04.110Z,1.6
2023-12-24T01:55:01.060Z,1.6
2023-12-24T01:55:59.871Z,1.6
2023-12-24T01:57:00.956Z,1.6
2023-12-24T01:57:59.626Z,1.6
2023-12-24T01:59:00.372Z,1.6
2023-12-24T01:59:59.026Z,1.6
2023-12-24T02:00:59.778Z,1.6
2023-12-24T02:02:01.022Z,1.6
2023-12-24T02:02:59.882Z,1.6
2023-12-24T02:03:58.849Z,1.6
2023-12-24T02:04:59.701Z,1.6
2023-12-24T02:05:58.756Z,1.6
2023-12-24T02:07:00.158Z,1.6
2023-12-24T02:07:58.917Z,1.6
2023-12-24T02:08:59.596Z,1.6
2023-12-24T02:10:00.327Z,1.6
2023-12-24T02:10:59.367Z,1.6
2023-12-24T02:12:00.506Z,1.5
2023-12-24T02:12:59.232Z,1.5
2023-12-24T02:13:59.953Z,1.5
2023-12-24T02:14:58.902Z,1.5
2023-12-24T02:16:00.973Z,1.5
2023-12-24T02:16:59.745Z,1.6
2023-12-24T02:18:01.211Z,1.6
2023-12-24T02:19:00.298Z,1.6
2023-12-24T02:19:59.080Z,1.6
2023-12-24T02:20:59.774Z,1.5
2023-12-24T02:22:01.029Z,1.5
2023-12-24T02:22:59.733Z,1.5
2023-12-24T02:24:01.019Z,1.5
2023-12-24T02:24:59.684Z,1.5
2023-12-24T02:26:00.386Z,1.5
2023-12-24T02:26:59.116Z,1.6
2023-12-24T02:27:59.817Z,1.6
2023-12-24T02:29:01.022Z,1.6
2023-12-24T02:29:59.716Z,1.6
2023-12-24T02:31:01.155Z,1.6
2023-12-24T02:31:59.879Z,1.5
2023-12-24T02:33:01.287Z,1.5
2023-12-24T02:34:00.176Z,1.6
2023-12-24T02:34:58.960Z,1.6
2023-12-24T02:35:59.669Z,1.6
2023-12-24T02:37:03.520Z,1.6
2023-12-24T02:37:59.814Z,1.6
2023-12-24T02:39:01.019Z,1.6
2023-12-24T02:39:59.773Z,1.6
2023-12-24T02:41:01.374Z,1.6
2023-12-24T02:42:07.499Z,1.6
2023-12-24T02:43:00.175Z,1.6
2023-12-24T02:43:58.909Z,1.6
2023-12-24T02:44:59.612Z,1.6
2023-12-24T02:46:00.377Z,1.6
2023-12-24T02:47:10.026Z,1.6
2023-12-24T02:48:00.529Z,1.6
2023-12-24T02:48:59.422Z,1.6
2023-12-24T02:50:00.152Z,1.6
2023-12-24T02:50:58.961Z,1.6
2023-12-24T02:52:12.518Z,1.6
2023-12-24T02:52:59.709Z,1.6
2023-12-24T02:54:01.034Z,1.6
2023-12-24T02:54:59.679Z,1.6
2023-12-24T02:56:00.421Z,1.6
2023-12-24T02:56:59.174Z,1.6
2023-12-24T02:57:59.903Z,1.6
2023-12-24T02:59:00.970Z,1.6
2023-12-24T02:59:59.910Z,1.6
2023-12-24T03:01:01.094Z,1.6
2023-12-24T03:01:59.945Z,1.6
2023-12-24T03:02:58.694Z,1.6
2023-12-24T03:04:00.992Z,1.6
2023-12-24T03:04:59.720Z,1.6
2023-12-24T03:06:01.093Z,1.6
2023-12-24T03:06:59.767Z,1.6
2023-12-24T03:08:01.036Z,1.5
2023-12-24T03:09:00.153Z,1.6
2023-12-24T03:09:58.857Z,1.6
2023-12-24T03:10:59.785Z,1.6
2023-12-24T03:12:01.019Z,1.6
2023-12-24T03:12:59.682Z,1.6
2023-12-24T03:14:01.039Z,1.6
2023-12-24T03:14:59.818Z,1.6
2023-12-24T03:16:01.053Z,1.5
2023-12-24T03:17:00.140Z,1.5
2023-12-24T03:17:59.098Z,1.5
2023-12-24T03:19:00.270Z,1.5
2023-12-24T03:19:59.051Z,1.6
2023-12-24T03:20:59.744Z,1.6
2023-12-24T03:22:01.021Z,1.5
2023-12-24T03:22:59.802Z,1.5
2023-12-24T03:24:01.393Z,1.5
2023-12-24T03:25:00.037Z,1.5
2023-12-24T03:25:58.766Z,1.5
2023-12-24T03:27:01.020Z,1.5
2023-12-24T03:27:59.679Z,1.5
2023-12-24T03:29:01.160Z,1.5
2023-12-24T03:29:59.793Z,1.6
2023-12-24T03:31:01.230Z,1.6
2023-12-24T03:32:00.041Z,1.6
2023-12-24T03:32:59.339Z,1.6
2023-12-24T03:34:00.327Z,1.6
2023-12-24T03:34:59.272Z,1.6
2023-12-24T03:36:00.071Z,1.5
2023-12-24T03:36:58.703Z,1.6
2023-12-24T03:38:01.401Z,1.6
2023-12-24T03:39:00.187Z,1.6
2023-12-24T03:39:58.849Z,1.6
2023-12-24T03:41:01.047Z,1.5
2023-12-24T03:41:59.678Z,1.5
2023-12-24T03:43:00.431Z,1.5
2023-12-24T03:43:59.187Z,1.5
2023-12-24T03:44:59.891Z,1.5
2023-12-24T03:46:01.407Z,1.5
2023-12-24T03:47:00.261Z,1.5
2023-12-24T03:47:59.151Z,1.6
2023-12-24T03:48:59.968Z,1.6
2023-12-24T03:49:59.216Z,1.6
2023-12-24T03:50:59.920Z,1.6
2023-12-24T03:52:01.090Z,1.6
2023-12-24T03:53:01.168Z,1.6
2023-12-24T03:54:00.252Z,1.5
2023-12-24T03:54:58.940Z,1.6
2023-12-24T03:55:59.708Z,1.6
2023-12-24T03:57:01.104Z,1.6
2023-12-24T03:57:59.762Z,1.6
2023-12-24T03:59:01.121Z,1.6
2023-12-24T04:00:01.834Z,1.6
2023-12-24T04:00:59.986Z,1.6
2023-12-24T04:01:58.874Z,1.6
2023-12-24T04:03:01.285Z,1.6
2023-12-24T04:04:00.146Z,1.6
2023-12-24T04:04:58.909Z,1.6
2023-12-24T04:05:59.614Z,1.6
2023-12-24T04:07:00.344Z,1.6
2023-12-24T04:08:04.539Z,1.6
2023-12-24T04:09:00.038Z,1.6
2023-12-24T04:09:58.703Z,1.6
2023-12-24T04:11:01.115Z,1.6
2023-12-24T04:11:59.857Z,1.6
2023-12-24T04:13:07.527Z,1.6
2023-12-24T04:14:00.317Z,1.6
2023-12-24T04:14:59.325Z,1.6
2023-12-24T04:16:00.253Z,1.6
2023-12-24T04:16:58.994Z,1.6
2023-12-24T04:18:10.842Z,1.6
2023-12-24T04:18:59.816Z,1.6
2023-12-24T04:20:01.059Z,1.6
2023-12-24T04:20:59.856Z,1.6
2023-12-24T04:22:00.995Z,1.6
2023-12-24T04:23:13.616Z,1.6
2023-12-24T04:23:59.641Z,1.6
2023-12-24T04:25:00.986Z,1.6
2023-12-24T04:25:59.649Z,1.5
2023-12-24T04:27:00.357Z,1.6
2023-12-24T04:27:59.061Z,1.5
2023-12-24T04:28:59.816Z,1.5
2023-12-24T04:30:01.069Z,1.5
2023-12-24T04:30:59.871Z,1.6
2023-12-24T04:32:01.049Z,1.6
2023-12-24T04:32:59.720Z,1.6
2023-12-24T04:34:01.096Z,1.5
2023-12-24T04:34:59.838Z,1.5
2023-12-24T04:36:01.044Z,1.5
2023-12-24T04:36:59.704Z,1.5
2023-12-24T04:38:01.076Z,1.5
2023-12-24T04:38:59.837Z,1.5
2023-12-24T04:40:00.986Z,1.5
2023-12-24T04:40:59.755Z,1.5
2023-12-24T04:42:00.970Z,1.5
2023-12-24T04:42:59.642Z,1.5
2023-12-24T04:44:00.394Z,1.5
2023-12-24T04:44:59.146Z,1.5
2023-12-24T04:45:59.788Z,1.5
2023-12-24T04:47:01.363Z,1.5
2023-12-24T04:48:00.258Z,1.5
2023-12-24T04:48:59.013Z,1.5
2023-12-24T04:49:59.863Z,1.5
2023-12-24T04:51:01.044Z,1.5
2023-12-24T04:51:59.695Z,1.5
2023-12-24T04:53:01.070Z,1.5
2023-12-24T04:53:59.824Z,1.5
2023-12-24T04:55:03.023Z,1.5
2023-12-24T04:56:01.125Z,1.5
2023-12-24T04:56:59.730Z,1.5
2023-12-24T04:58:01.186Z,1.5
2023-12-24T04:58:59.862Z,1.5
2023-12-24T05:00:01.022Z,1.5
2023-12-24T05:00:59.798Z,1.5
2023-12-24T05:02:01.052Z,1.5
2023-12-24T05:02:59.789Z,1.5
2023-12-24T05:04:01.085Z,1.5
2023-12-24T05:05:00.421Z,1.5
2023-12-24T05:05:59.162Z,1.5
2023-12-24T05:06:59.926Z,1.5
2023-12-24T05:07:58.601Z,1.5
2023-12-24T05:09:00.332Z,1.5
2023-12-24T05:09:59.012Z,1.5
2023-12-24T05:10:59.772Z,1.5
2023-12-24T05:12:00.988Z,1.5
2023-12-24T05:12:59.733Z,1.6
2023-12-24T05:14:01.043Z,1.6
2023-12-24T05:14:59.744Z,1.6
2023-12-24T05:16:00.994Z,1.6
2023-12-24T05:16:59.654Z,1.6
2023-12-24T05:18:00.605Z,1.6
2023-12-24T05:18:59.535Z,1.6
2023-12-24T05:20:00.421Z,1.6
2023-12-24T05:20:59.181Z,1.6
2023-12-24T05:21:59.948Z,1.6
2023-12-24T05:22:58.615Z,1.6
2023-12-24T05:24:00.384Z,1.6
2023-12-24T05:24:59.107Z,1.6
2023-12-24T05:25:59.852Z,1.6
2023-12-24T05:27:01.617Z,1.6
2023-12-24T05:28:00.346Z,1.6
2023-12-24T05:28:59.157Z,1.6
2023-12-24T05:29:59.845Z,1.6
2023-12-24T05:31:01.062Z,1.6
2023-12-24T05:31:59.819Z,1.6
2023-12-24T05:33:01.189Z,1.6
2023-12-24T05:34:00.067Z,1.6
2023-12-24T05:34:58.885Z,1.6
2023-12-24T05:36:01.016Z,1.6
2023-12-24T05:37:00.221Z,1.6
2023-12-24T05:37:58.979Z,1.6
2023-12-24T05:38:59.604Z,1.6
2023-12-24T05:40:00.407Z,1.6
2023-12-24T05:40:59.172Z,1.7
2023-12-24T05:42:00.370Z,1.7
2023-12-24T05:42:59.105Z,1.7
2023-12-24T05:44:01.721Z,1.7
2023-12-24T05:44:59.774Z,1.7
2023-12-24T05:46:01.011Z,1.7
2023-12-24T05:46:59.819Z,1.8
2023-12-24T05:48:01.185Z,1.8
2023-12-24T05:49:04.680Z,1.8
2023-12-24T05:50:01.151Z,1.8
2023-12-24T05:51:00.432Z,1.8
2023-12-24T05:51:59.155Z,1.8
2023-12-24T05:52:59.916Z,1.8
2023-12-24T05:54:07.213Z,1.8
2023-12-24T05:54:59.701Z,1.8
2023-12-24T05:56:01.052Z,1.8
2023-12-24T05:56:59.805Z,1.8
2023-12-24T05:58:01.056Z,1.8
2023-12-24T05:59:09.546Z,1.8
2023-12-24T05:59:59.692Z,1.9
2023-12-24T06:01:01.106Z,1.9
2023-12-24T06:01:59.809Z,1.9
2023-12-24T06:03:01.045Z,1.9
2023-12-24T06:04:13.060Z,2
2023-12-24T06:04:59.766Z,2
2023-12-24T06:06:01.168Z,2.1
2023-12-24T06:06:59.883Z,2.1
2023-12-24T06:08:01.058Z,2.3
2023-12-24T06:09:15.246Z,2.3
2023-12-24T06:10:00.285Z,2.5
2023-12-24T06:10:59.046Z,2.6
2023-12-24T06:11:59.811Z,2.6
2023-12-24T06:13:01.056Z,2.8
2023-12-24T06:13:59.731Z,2.8
2023-12-24T06:15:01.001Z,2.9
2023-12-24T06:15:59.712Z,3
2023-12-24T06:17:01.172Z,3
2023-12-24T06:18:00.099Z,3.1
2023-12-24T06:18:59.199Z,3.1
2023-12-24T06:20:00.238Z,3.2
2023-12-24T06:20:59.645Z,3.3
2023-12-24T06:22:00.960Z,3.4
2023-12-24T06:22:59.677Z,3.6
2023-12-24T06:24:00.387Z,3.7
2023-12-24T06:24:59.013Z,3.8
2023-12-24T06:25:59.730Z,4
2023-12-24T06:27:01.036Z,4.1
2023-12-24T06:27:59.894Z,4.1
2023-12-24T06:29:01.107Z,4.3
2023-12-24T06:29:59.907Z,4.3
2023-12-24T06:31:01.207Z,4.5
2023-12-24T06:31:59.932Z,4.5
2023-12-24T06:32:58.705Z,4.6
2023-12-24T06:34:01.001Z,4.6
2023-12-24T06:34:59.770Z,4.7
2023-12-24T06:36:00.993Z,4.8
2023-12-24T06:36:59.651Z,4.8
2023-12-24T06:38:00.771Z,5
2023-12-24T06:38:59.450Z,5
2023-12-24T06:40:00.381Z,5.1
2023-12-24T06:40:59.081Z,5.1
2023-12-24T06:41:59.894Z,5.2
2023-12-24T06:43:01.154Z,5.2
2023-12-24T06:43:59.849Z,5.3
2023-12-24T06:45:01.076Z,5.3
2023-12-24T06:46:00.051Z,5.3
2023-12-24T06:46:58.799Z,5.4
2023-12-24T06:48:01.415Z,5.5
2023-12-24T06:49:00.627Z,5.6
2023-12-24T06:49:59.435Z,5.6
2023-12-24T06:51:00.154Z,5.6
2023-12-24T06:51:58.814Z,5.6
2023-12-24T06:53:01.035Z,5.6
2023-12-24T06:53:59.775Z,5.7
2023-12-24T06:55:01.020Z,5.7
2023-12-24T06:55:59.682Z,5.7
2023-12-24T06:57:01.054Z,5.8
2023-12-24T06:57:59.791Z,5.8
2023-12-24T06:59:01.070Z,5.8
2023-12-24T06:59:59.815Z,5.8
2023-12-24T07:01:01.051Z,5.8
2023-12-24T07:01:59.840Z,5.9
2023-12-24T07:03:01.106Z,6
2023-12-24T07:03:59.839Z,6
2023-12-24T07:05:01.220Z,6
2023-12-24T07:06:00.014Z,6
2023-12-24T07:06:58.807Z,6
2023-12-24T07:08:01.058Z,6
2023-12-24T07:08:59.759Z,6
2023-12-24T07:10:03.468Z,6
2023-12-24T07:11:01.009Z,6.1
2023-12-24T07:11:59.672Z,6.1
2023-12-24T07:13:00.413Z,6.1
2023-12-24T07:13:59.168Z,6.1
2023-12-24T07:14:59.917Z,6.1
2023-12-24T07:15:58.663Z,6.1
2023-12-24T07:17:00.477Z,6.1
2023-12-24T07:17:59.329Z,6.1
2023-12-24T07:19:00.222Z,6.2
2023-12-24T07:19:58.997Z,6.3
2023-12-24T07:20:59.730Z,6.3
2023-12-24T07:22:01.028Z,6.3
2023-12-24T07:23:02.814Z,6.3
2023-12-24T07:23:59.667Z,6.3
2023-12-24T07:25:00.987Z,6.3
2023-12-24T07:25:59.686Z,6.3
2023-12-24T07:27:01.038Z,6.3
2023-12-24T07:27:59.744Z,6.3
2023-12-24T07:29:01.150Z,6.3
2023-12-24T07:30:00.598Z,6.3
2023-12-24T07:30:59.825Z,6.3
2023-12-24T07:32:01.100Z,6.4
2023-12-24T07:33:00.052Z,6.4
2023-12-24T07:33:58.926Z,6.4
2023-12-24T07:35:04.089Z,6.4
2023-12-24T07:35:59.736Z,6.4
2023-12-24T07:37:00.961Z,6.4
2023-12-24T07:37:59.682Z,6.5
2023-12-24T07:39:01.002Z,6.5
2023-12-24T07:40:07.568Z,6.5
2023-12-24T07:40:59.744Z,6.5
2023-12-24T07:42:00.991Z,6.5
2023-12-24T07:42:59.887Z,6.5
2023-12-24T07:44:01.059Z,6.6
2023-12-24T07:45:10.662Z,6.6
2023-12-24T07:46:00.198Z,6.6
2023-12-24T07:46:58.865Z,6.6
2023-12-24T07:48:01.115Z,6.6
2023-12-24T07:49:00.038Z,6.6
2023-12-24T07:49:58.868Z,6.7
2023-12-24T07:51:01.328Z,6.7
2023-12-24T07:52:00.072Z,6.6
2023-12-24T07:52:58.803Z,6.7
2023-12-24T07:54:01.095Z,6.7
2023-12-24T07:54:59.728Z,6.7
2023-12-24T07:56:01.265Z,6.8
2023-12-24T07:57:00.050Z,6.8
2023-12-24T07:57:58.717Z,6.8
2023-12-24T07:59:01.429Z,6.8
2023-12-24T08:00:00.076Z,6.7
2023-12-24T08:00:58.809Z,6.7
2023-12-24T08:02:01.055Z,6.7
2023-12-24T08:02:59.865Z,6.8
2023-12-24T08:04:01.031Z,6.8
2023-12-24T08:04:59.737Z,6.8
2023-12-24T08:06:01.247Z,6.8
2023-12-24T08:07:00.212Z,6.8
2023-12-24T08:07:59.038Z,6.8
2023-12-24T08:08:59.721Z,6.8
2023-12-24T08:10:00.968Z,6.9
2023-12-24T08:11:07.059Z,6.9
2023-12-24T08:12:00.219Z,6.9
2023-12-24T08:13:05.299Z,6.9
2023-12-24T08:14:01.145Z,6.9
2023-12-24T08:14:59.876Z,6.9
2023-12-24T08:16:01.140Z,6.9
2023-12-24T08:16:59.899Z,6.9
2023-12-24T08:18:01.269Z,7
2023-12-24T08:19:00.342Z,7
2023-12-24T08:19:59.388Z,7
2023-12-24T08:21:00.193Z,7
2023-12-24T08:21:59.206Z,7.1
2023-12-24T08:22:59.917Z,7.1
2023-12-24T08:24:01.058Z,7.1
2023-12-24T08:25:00.132Z,7.1
2023-12-24T08:25:58.796Z,7.1
2023-12-24T08:27:01.016Z,7.1
2023-12-24T08:27:59.739Z,7.1
2023-12-24T08:29:01.108Z,7.1
2023-12-24T08:29:59.879Z,7.1
2023-12-24T08:31:01.057Z,7.1
2023-12-24T08:32:00.028Z,7.2
2023-12-24T08:32:59.135Z,7.2
2023-12-24T08:33:58.692Z,7.3
2023-12-24T08:35:01.490Z,7.3
2023-12-24T08:36:00.205Z,7.3
2023-12-24T08:36:59.313Z,7.3
2023-12-24T08:38:00.077Z,7.3
2023-12-24T08:38:58.775Z,7.3
2023-12-24T08:40:01.160Z,7.3
2023-12-24T08:40:59.858Z,7.3
2023-12-24T08:42:01.701Z,7.3
2023-12-24T08:43:00.975Z,7.3
2023-12-24T08:43:59.639Z,7.3
2023-12-24T08:45:00.385Z,7.3
2023-12-24T08:45:59.189Z,7.3
2023-12-24T08:46:59.969Z,7.3
2023-12-24T08:47:58.803Z,7.3
2023-12-24T08:49:01.186Z,7.3
2023-12-24T08:49:59.879Z,7.3
2023-12-24T08:51:01.049Z,7.3
2023-12-24T08:51:59.808Z,7.4
2023-12-24T08:53:59.807Z,7.4
2023-12-24T08:55:01.522Z,7.4
2023-12-24T08:56:00.305Z,7.5
2023-12-24T08:56:59.104Z,7.5
2023-12-24T08:57:59.830Z,7.5
2023-12-24T08:59:00.988Z,7.5
2023-12-24T08:59:59.637Z,7.5
2023-12-24T09:01:00.495Z,7.5
2023-12-24T09:01:59.308Z,7.5
2023-12-24T09:02:59.973Z,7.5
2023-12-24T09:03:58.679Z,7.5
2023-12-24T09:05:01.075Z,7.5
2023-12-24T09:05:59.836Z,7.5
2023-12-24T09:06:58.809Z,7.5
2023-12-24T09:08:00.053Z,7.5
2023-12-24T09:08:58.928Z,7.5
2023-12-24T09:09:59.586Z,7.5
2023-12-24T09:11:01.076Z,7.5
2023-12-24T09:11:59.806Z,7.5
2023-12-24T09:13:01.068Z,7.5
2023-12-24T09:13:59.686Z,7.5
2023-12-24T09:14:58.741Z,7.5
2023-12-24T09:16:03.423Z,7.5
2023-12-24T09:17:01.069Z,7.5
2023-12-24T09:17:59.879Z,7.5
2023-12-24T09:18:58.739Z,7.6
2023-12-24T09:20:04.019Z,7.6
2023-12-24T09:21:06.722Z,7.6
2023-12-24T09:21:59.976Z,7.6
2023-12-24T09:22:58.665Z,7.6
2023-12-24T09:24:00.406Z,7.7
2023-12-24T09:24:59.375Z,7.6
2023-12-24T09:26:09.231Z,7.6
2023-12-24T09:27:01.097Z,7.6
2023-12-24T09:27:59.937Z,7.7
2023-12-24T09:28:58.599Z,7.7
2023-12-24T09:30:00.318Z,7.7
2023-12-24T09:31:10.233Z,7.8
2023-12-24T09:31:59.948Z,7.7
2023-12-24T09:32:58.778Z,7.7
2023-12-24T09:34:01.130Z,7.8
2023-12-24T09:34:59.914Z,7.8
2023-12-24T09:36:14.182Z,7.8
2023-12-24T09:37:01.016Z,7.8
2023-12-24T09:37:59.673Z,7.8
2023-12-24T09:39:00.633Z,7.8
2023-12-24T09:39:59.279Z,7.8
2023-12-24T09:40:59.955Z,7.9
2023-12-24T09:41:58.693Z,7.9
2023-12-24T09:43:01.097Z,8
2023-12-24T09:43:59.808Z,8
2023-12-24T09:45:00.953Z,8
2023-12-24T09:45:59.631Z,8
2023-12-24T09:47:00.639Z,8
2023-12-24T09:47:59.442Z,8
2023-12-24T09:49:00.439Z,8
2023-12-24T09:49:59.152Z,8
2023-12-24T09:51:00.187Z,8
2023-12-24T09:51:58.846Z,8
2023-12-24T09:53:01.072Z,8
2023-12-24T09:53:59.789Z,8
2023-12-24T09:55:00.977Z,8
2023-12-24T09:55:59.686Z,8
2023-12-24T09:57:00.944Z,8.1
2023-12-24T09:57:59.607Z,8.1
2023-12-24T09:59:05.325Z,8.1
2023-12-24T10:00:00.335Z,8.1
2023-12-24T10:00:59.027Z,8.1
2023-12-24T10:01:59.728Z,8.1
2023-12-24T10:03:01.122Z,8.1
2023-12-24T10:04:00.063Z,8.2
2023-12-24T10:05:01.228Z,8.2
2023-12-24T10:06:00.171Z,8.3
2023-12-24T10:06:58.931Z,8.3
2023-12-24T10:07:59.617Z,8.2
2023-12-24T10:09:00.267Z,8.2
2023-12-24T10:09:58.976Z,8.3
2023-12-24T10:10:59.669Z,8.3
2023-12-24T10:12:01.050Z,8.3
2023-12-24T10:12:59.804Z,8.3
2023-12-24T10:14:01.083Z,8.3
2023-12-24T10:15:00.236Z,8.3
2023-12-24T10:15:59.089Z,8.3
2023-12-24T10:16:59.822Z,8.3
2023-12-24T10:18:01.021Z,8.3
2023-12-24T10:18:59.960Z,8.3
2023-12-24T10:19:58.748Z,8.2
2023-12-24T10:21:01.171Z,8.2
2023-12-24T10:21:59.853Z,8.2
2023-12-24T10:23:00.999Z,8.3
2023-12-24T10:24:00.035Z,8.3
2023-12-24T10:24:58.790Z,8.3
2023-12-24T10:26:00.997Z,8.3
2023-12-24T10:26:59.676Z,8.3
2023-12-24T10:28:03.069Z,8.3
2023-12-24T10:29:04.616Z,8.3
2023-12-24T10:29:59.923Z,8.3
2023-12-24T10:30:58.706Z,8.4
2023-12-24T10:32:00.961Z,8.4
2023-12-24T10:33:00.090Z,8.4
2023-12-24T10:33:58.934Z,8.4
2023-12-24T10:34:59.618Z,8.4
2023-12-24T10:36:00.248Z,8.4
2023-12-24T10:36:58.910Z,8.3
2023-12-24T10:38:01.925Z,8.4
2023-12-24T10:39:01.073Z,8.4
2023-12-24T10:39:59.839Z,8.4
2023-12-24T10:41:01.009Z,8.3
2023-12-24T10:41:59.891Z,8.3
2023-12-24T10:43:01.234Z,8.3
2023-12-24T10:43:59.878Z,8.4
2023-12-24T10:45:01.170Z,8.4
2023-12-24T10:45:59.893Z,8.4
2023-12-24T10:47:01.104Z,8.4
2023-12-24T10:47:59.933Z,8.5
2023-12-24T10:48:58.868Z,8.5
2023-12-24T10:50:03.668Z,8.5
2023-12-24T10:51:00.955Z,8.5
2023-12-24T10:51:59.584Z,8.5
2023-12-24T10:53:00.248Z,8.5
2023-12-24T10:53:59.114Z,8.4
2023-12-24T10:54:59.946Z,8.5
2023-12-24T10:55:58.629Z,8.5
2023-12-24T10:57:01.038Z,8.5
2023-12-24T10:57:59.841Z,8.5
2023-12-24T10:59:01.022Z,8.5
2023-12-24T10:59:59.778Z,8.5
2023-12-24T11:01:01.067Z,8.5
2023-12-24T11:02:01.435Z,8.5
2023-12-24T11:02:59.782Z,8.5
2023-12-24T11:04:01.164Z,8.5
2023-12-24T11:04:59.997Z,8.5
2023-12-24T11:05:59.036Z,8.5
2023-12-24T11:07:04.004Z,8.5
2023-12-24T11:07:59.840Z,8.5
2023-12-24T11:09:01.164Z,8.5
2023-12-24T11:10:00.061Z,8.6
2023-12-24T11:10:58.775Z,8.6
2023-12-24T11:12:06.217Z,8.6
2023-12-24T11:13:05.835Z,8.6
2023-12-24T11:14:00.087Z,8.6
2023-12-24T11:14:58.728Z,8.6
2023-12-24T11:16:01.058Z,8.6
2023-12-24T11:17:08.565Z,8.6
2023-12-24T11:18:00.399Z,8.6
2023-12-24T11:18:59.653Z,8.6
2023-12-24T11:20:00.702Z,8.6
2023-12-24T11:20:59.498Z,8.7
2023-12-24T11:22:10.520Z,8.7
2023-12-24T11:23:00.208Z,8.6
2023-12-24T11:23:58.930Z,8.7
2023-12-24T11:25:01.005Z,8.7
2023-12-24T11:25:59.619Z,8.7
2023-12-24T11:27:12.329Z,8.7
2023-12-24T11:28:00.236Z,8.7
2023-12-24T11:28:58.916Z,8.7
2023-12-24T11:30:02.609Z,8.8
2023-12-24T11:31:01.044Z,8.7
2023-12-24T11:32:14.242Z,8.7
2023-12-24T11:33:00.011Z,8.7
2023-12-24T11:33:58.846Z,8.7
2023-12-24T11:35:01.101Z,8.7
2023-12-24T11:35:59.786Z,8.7
2023-12-24T11:37:01.308Z,8.7
2023-12-24T11:38:00.037Z,8.7
2023-12-24T11:38:58.950Z,8.6
2023-12-24T11:39:59.648Z,8.6
2023-12-24T11:41:00.354Z,8.7
2023-12-24T11:41:59.092Z,8.6
2023-12-24T11:42:59.750Z,8.6
2023-12-24T11:44:01.186Z,8.6
2023-12-24T11:44:59.852Z,8.7
2023-12-24T11:45:58.748Z,8.6
2023-12-24T11:47:00.489Z,8.6
2023-12-24T11:47:59.417Z,8.6
2023-12-24T11:49:00.225Z,8.6
2023-12-24T11:49:58.939Z,8.6
2023-12-24T11:50:59.769Z,8.6
2023-12-24T11:52:00.947Z,8.6
2023-12-24T11:52:59.734Z,8.6
2023-12-24T11:54:01.102Z,8.6
2023-12-24T11:54:59.859Z,8.7
2023-12-24T11:56:01.015Z,8.6
2023-12-24T11:56:59.785Z,8.6
2023-12-24T11:58:01.052Z,8.6
2023-12-24T11:58:59.896Z,8.6
2023-12-24T12:00:01.735Z,8.6
2023-12-24T12:01:01.683Z,8.6
2023-12-24T12:01:59.974Z,8.6
2023-12-24T12:02:59.218Z,8.6
2023-12-24T12:04:01.172Z,8.6
2023-12-24T12:05:00.396Z,8.6
2023-12-24T12:05:59.497Z,8.6
2023-12-24T12:07:00.596Z,8.6
2023-12-24T12:07:59.795Z,8.6
2023-12-24T12:09:01.538Z,8.6
2023-12-24T12:10:00.270Z,8.6
2023-12-24T12:10:59.001Z,8.6
2023-12-24T12:11:59.720Z,8.6
2023-12-24T12:13:00.398Z,8.6
2023-12-24T12:13:59.131Z,8.6
2023-12-24T12:14:59.851Z,8.6
2023-12-24T12:16:00.531Z,8.6
2023-12-24T12:16:59.308Z,8.6
2023-12-24T12:18:00.291Z,8.6
2023-12-24T12:18:59.187Z,8.6
2023-12-24T12:19:59.924Z,8.6
2023-12-24T12:20:58.660Z,8.6
2023-12-24T12:22:00.674Z,8.6
2023-12-24T12:22:59.389Z,8.6
2023-12-24T12:24:00.148Z,8.6
2023-12-24T12:24:58.885Z,8.6
2023-12-24T12:26:01.071Z,8.6
2023-12-24T12:26:59.726Z,8.6
2023-12-24T12:28:00.963Z,8.6
2023-12-24T12:28:59.908Z,8.6
2023-12-24T12:29:58.644Z,8.6
2023-12-24T12:31:01.539Z,8.7
2023-12-24T12:32:00.221Z,8.6
2023-12-24T12:32:59.286Z,8.6
2023-12-24T12:34:00.188Z,8.6
2023-12-24T12:34:58.881Z,8.6
2023-12-24T12:36:01.225Z,8.6
2023-12-24T12:36:59.994Z,8.6
2023-12-24T12:37:58.675Z,8.7
2023-12-24T12:39:00.708Z,8.6
2023-12-24T12:39:59.394Z,8.7
2023-12-24T12:41:00.125Z,8.7
2023-12-24T12:41:58.787Z,8.7
2023-12-24T12:43:00.960Z,8.7
2023-12-24T12:43:59.617Z,8.7
2023-12-24T12:45:00.413Z,8.7
2023-12-24T12:45:59.395Z,8.7
2023-12-24T12:47:00.089Z,8.7
2023-12-24T12:47:58.927Z,8.7
2023-12-24T12:48:59.961Z,8.8
2023-12-24T12:49:58.744Z,8.8
2023-12-24T12:51:01.114Z,8.8
2023-12-24T12:51:59.779Z,8.8
2023-12-24T12:53:01.250Z,8.8
2023-12-24T12:53:59.879Z,8.8
2023-12-24T12:55:01.059Z,8.8
2023-12-24T12:55:59.793Z,8.8
2023-12-24T12:57:01.046Z,8.9
2023-12-24T12:58:00.382Z,8.9
2023-12-24T12:58:59.022Z,8.9
2023-12-24T12:59:59.850Z,9
2023-12-24T13:01:01.302Z,9
2023-12-24T13:02:00.059Z,8.9
2023-12-24T13:03:03.320Z,8.9
2023-12-24T13:03:59.889Z,9
2023-12-24T13:04:58.622Z,9
2023-12-24T13:06:00.398Z,9
2023-12-24T13:07:00.087Z,9
2023-12-24T13:08:05.382Z,9
2023-12-24T13:08:59.761Z,9
2023-12-24T13:10:00.426Z,9
2023-12-24T13:10:59.078Z,9
2023-12-24T13:11:59.785Z,9
2023-12-24T13:13:09.461Z,9
2023-12-24T13:14:00.242Z,9
2023-12-24T13:14:58.938Z,9
2023-12-24T13:15:59.717Z,9
2023-12-24T13:17:01.029Z,9
2023-12-24T13:18:13.384Z,9
2023-12-24T13:18:59.813Z,9
2023-12-24T13:20:01.095Z,9
2023-12-24T13:20:59.751Z,9
2023-12-24T13:22:01.085Z,9
2023-12-24T13:23:14.378Z,9
2023-12-24T13:23:59.978Z,9
2023-12-24T13:24:58.659Z,9
2023-12-24T13:26:00.286Z,9
2023-12-24T13:26:58.980Z,9.1
2023-12-24T13:27:59.721Z,9.1
2023-12-24T13:29:01.051Z,9.1
2023-12-24T13:29:59.830Z,9.1
2023-12-24T13:31:01.049Z,9.1
2023-12-24T13:31:59.855Z,9.1
2023-12-24T13:33:01.127Z,9.1
2023-12-24T13:34:00.103Z,9.1
2023-12-24T13:34:59.005Z,9.1
2023-12-24T13:35:59.770Z,9.1
2023-12-24T13:37:00.702Z,9.1
2023-12-24T13:37:59.616Z,9.1
2023-12-24T13:39:00.295Z,9
2023-12-24T13:39:58.959Z,9.1
2023-12-24T13:40:59.893Z,9.1
2023-12-24T13:42:01.105Z,9.1
2023-12-24T13:42:59.790Z,9.1
2023-12-24T13:43:58.978Z,9.1
2023-12-24T13:44:59.703Z,9.1
2023-12-24T13:46:01.052Z,9.1
2023-12-24T13:47:00.140Z,9.1
2023-12-24T13:47:58.990Z,9.2
2023-12-24T13:48:59.849Z,9.1
2023-12-24T13:50:00.970Z,9.1
2023-12-24T13:50:59.696Z,9.1
2023-12-24T13:52:00.939Z,9.1
2023-12-24T13:53:01.568Z,9.1
2023-12-24T13:54:00.180Z,9.1
2023-12-24T13:54:59.052Z,9.1
2023-12-24T13:56:00.112Z,9.1
2023-12-24T13:56:58.888Z,9.1